Airfield :
LOGIN :

Register | Disclaimer

   EN    FR    IT 

 










Legend :    VFR   Marginal VFR   IFR   Intensive IFR   Very Intensive IFR
Visi :
Ceiling :
>= 8 km
>= 3000ft
5 to 8 km
1000 to 3000 ft
1500m to 5 km
500 to 1000 ft
800 to 1500m
200 to 500 ft
< 800m
< 200 ft
Symbols :   Thunderstorms  Fog  Heavy snow  Heavy precipitations  Wind > 20 kt
SIGMETs :     Misc.  Thunderstorms  Icing  Turbulence  Mountain Waves  Volcanic Ashes






- Airport Elevation : 90 ft
- IATA code : NTE


LFRS - Nantes

CURRENT METAR :
  • 201900Z AUTO 35004KT 9999 FEW035/// SCT150/// OVC170/// ///TCU 11/09 Q1010 TEMPO 4000 RA BKN011 SCT020CB

EXPIRED METARs :
  • 201830Z AUTO 35004KT 320V030 CAVOK 11/10 Q1010 TEMPO 4000 RA BKN011 SCT020CB
  • 201800Z AUTO 32003KT 290V010 9999 FEW023/// SCT040/// BKN047/// ///TCU 11/11 Q1009 TEMPO 4000 RA BKN011 SCT020CB
  • 201730Z AUTO VRB02KT 9999 FEW023/// SCT029/// BKN039/// ///TCU 11/10 Q1009 TEMPO 4000 RA BKN011 SCT020CB
  • 201700Z AUTO 02004KT 330V060 9999 -RA FEW011/// SCT029/// BKN037/// ///TCU 11/10 Q1008 TEMPO 3000 RA BKN008 SCT020CB
  • 201630Z AUTO 04006KT 360V090 7000 RA FEW013/// SCT020/// BKN025/// ///TCU 12/11 Q1008 TEMPO 3000 RA BKN008 SCT020CB

TAF TAF LFRS
Valid from the 20 at 18:00 until the 22 at 00:00 UTC


201700Z 2018/2124 36005KT 9999 SCT020 BKN040
TEMPO 2018/2102 4000 RA BKN011 SCT020CB
PROB40
TEMPO 2103/2109 4000 BR
ATIS : +33 2 40 05 12 74



MET'MAP, your aeronautical weather chart ! - Copyright ORBIFLY December 2007 - Disclaimer

ORBIFLY MET'MAP TEAM :

Programming & Development : Alexandra Zaïnal
Concept & Development : Baudouin d'Aumeries
Co-Development & Prog : Marc-Olivier Méhu
Technical & hardware support : Manuel Goepfert

Contact : metmap@orbifly.com




SOURCES & CREDITS :

   NOAA